createdAt,value
2022-12-09T00:00:49.326Z,14.27
2022-12-09T00:03:23.644Z,11.82
2022-12-09T00:05:53.632Z,12.00
2022-12-09T00:08:21.336Z,9.07
2022-12-09T00:10:59.813Z,13.32
2022-12-09T00:13:27.367Z,15.38
2022-12-09T00:16:26.680Z,11.63
2022-12-09T00:18:54.100Z,14.00
2022-12-09T00:21:44.894Z,10.60
2022-12-09T00:24:13.812Z,9.77
2022-12-09T00:26:40.914Z,9.07
2022-12-09T00:29:15.765Z,8.18
2022-12-09T00:31:48.465Z,11.93
2022-12-09T00:34:23.106Z,8.85
2022-12-09T00:37:04.791Z,6.32
2022-12-09T00:39:35.052Z,8.02
2022-12-09T00:42:04.620Z,9.13
2022-12-09T00:44:35.224Z,7.13
2022-12-09T00:47:08.628Z,9.90
2022-12-09T00:49:38.429Z,8.02
2022-12-09T00:52:09.346Z,9.68
2022-12-09T00:54:46.820Z,6.38
2022-12-09T00:57:31.756Z,7.28
2022-12-09T01:00:15.922Z,9.95
2022-12-09T01:02:49.415Z,7.82
2022-12-09T01:05:20.145Z,9.07
2022-12-09T01:07:56.856Z,9.60
2022-12-09T01:10:29.682Z,7.45
2022-12-09T01:13:09.710Z,4.63
2022-12-09T01:15:51.590Z,6.40
2022-12-09T01:18:41.854Z,8.60
2022-12-09T01:21:20.294Z,7.63
2022-12-09T01:23:57.574Z,8.57
2022-12-09T01:26:31.796Z,6.10
2022-12-09T01:29:04.848Z,7.20
2022-12-09T01:31:46.866Z,8.05
2022-12-09T01:34:16.415Z,5.75
2022-12-09T01:36:51.456Z,6.07
2022-12-09T01:39:27.839Z,6.72
2022-12-09T01:45:20.693Z,10.93
2022-12-09T01:48:16.586Z,8.68
2022-12-09T01:51:07.043Z,10.00
2022-12-09T01:53:43.428Z,8.95
2022-12-09T01:56:34.093Z,8.52
2022-12-09T01:59:15.164Z,9.43
2022-12-09T02:01:55.070Z,7.70
2022-12-09T02:04:36.592Z,7.75
2022-12-09T02:07:27.479Z,6.43
2022-12-09T02:09:57.144Z,6.75
2022-12-09T02:12:53.536Z,10.75
2022-12-09T02:15:34.979Z,8.82
2022-12-09T02:18:25.207Z,6.18
2022-12-09T02:21:41.048Z,9.40
2022-12-09T02:24:19.688Z,7.30
2022-12-09T02:27:03.646Z,7.22
2022-12-09T02:32:28.733Z,8.13
2022-12-09T02:35:08.973Z,7.50
2022-12-09T02:37:49.821Z,11.02
2022-12-09T02:40:28.669Z,9.35
2022-12-09T02:43:00.793Z,6.45
2022-12-09T02:45:34.665Z,6.97
2022-12-09T02:48:06.286Z,8.43
2022-12-09T02:50:49.523Z,8.55
2022-12-09T02:53:18.713Z,5.18
2022-12-09T02:55:58.435Z,4.90
2022-12-09T02:58:44.542Z,6.68
2022-12-09T03:01:36.590Z,7.32
2022-12-09T03:04:08.622Z,5.32
2022-12-09T03:06:57.851Z,9.68
2022-12-09T03:09:40.236Z,7.55
2022-12-09T03:12:25.888Z,5.78
2022-12-09T03:15:00.419Z,4.93
2022-12-09T03:17:35.721Z,6.95
2022-12-09T03:20:12.901Z,6.00
2022-12-09T03:25:33.247Z,5.25
2022-12-09T03:28:16.213Z,4.80
2022-12-09T03:31:05.172Z,6.53
2022-12-09T03:33:33.615Z,8.57
2022-12-09T03:36:31.090Z,9.05
2022-12-09T03:39:35.796Z,8.18
2022-12-09T03:42:23.983Z,6.72
2022-12-09T03:45:12.975Z,6.20
2022-12-09T03:48:04.849Z,7.38
2022-12-09T03:54:06.295Z,5.53
2022-12-09T03:56:45.007Z,3.72
2022-12-09T03:59:42.545Z,5.78
2022-12-09T04:02:16.540Z,5.30
2022-12-09T04:04:49.629Z,5.22
2022-12-09T04:07:41.962Z,8.20
2022-12-09T04:10:31.864Z,5.40
2022-12-09T04:13:04.508Z,7.90
2022-12-09T04:16:07.212Z,5.65
2022-12-09T04:18:42.547Z,3.50
2022-12-09T04:21:22.000Z,6.28
2022-12-09T04:23:52.180Z,7.75
2022-12-09T04:26:42.488Z,8.18
2022-12-09T04:29:12.753Z,6.53
2022-12-09T04:31:44.678Z,7.03
2022-12-09T04:34:14.345Z,13.05
2022-12-09T04:36:55.625Z,6.35
2022-12-09T04:39:26.591Z,6.00
2022-12-09T04:41:58.521Z,6.57
2022-12-09T04:44:34.118Z,5.70
2022-12-09T04:47:33.206Z,8.60
2022-12-09T04:50:11.660Z,8.13
2022-12-09T04:52:59.962Z,6.20
2022-12-09T04:58:24.134Z,9.00
2022-12-09T05:01:04.755Z,4.53
2022-12-09T05:03:42.066Z,5.13
2022-12-09T05:06:17.649Z,6.45
2022-12-09T05:09:05.408Z,4.78
2022-12-09T05:14:16.538Z,3.30
2022-12-09T05:16:47.195Z,5.68
2022-12-09T05:19:20.256Z,5.00
2022-12-09T05:21:57.553Z,5.28
2022-12-09T05:24:29.585Z,4.68
2022-12-09T05:27:19.660Z,5.53
2022-12-09T05:29:52.561Z,11.38
2022-12-09T05:32:26.849Z,4.82
2022-12-09T05:35:07.510Z,8.35
2022-12-09T05:37:52.225Z,4.57
2022-12-09T05:40:24.876Z,4.05
2022-12-09T05:43:22.276Z,4.68
2022-12-09T05:46:05.703Z,3.70
2022-12-09T05:48:38.503Z,6.78
2022-12-09T05:51:14.781Z,6.45
2022-12-09T05:53:43.317Z,7.25
2022-12-09T05:56:16.158Z,7.70
2022-12-09T05:58:47.728Z,7.25
2022-12-09T06:01:18.641Z,9.38
2022-12-09T06:06:24.830Z,3.97
2022-12-09T06:08:57.053Z,12.88
2022-12-09T06:11:35.474Z,7.72
2022-12-09T06:14:15.596Z,7.68
2022-12-09T06:16:53.901Z,6.50
2022-12-09T06:19:40.793Z,5.65
2022-12-09T06:22:13.947Z,4.97
2022-12-09T06:24:46.232Z,3.63
2022-12-09T06:27:27.610Z,6.32
2022-12-09T06:29:59.009Z,6.43
2022-12-09T06:32:42.429Z,5.22
2022-12-09T06:35:15.299Z,6.60
2022-12-09T06:37:48.158Z,7.18
2022-12-09T06:40:17.025Z,5.65
2022-12-09T06:42:59.751Z,6.03
2022-12-09T06:45:29.418Z,3.70
2022-12-09T06:48:01.852Z,4.22
2022-12-09T06:53:37.450Z,4.13
2022-12-09T07:00:15.372Z,7.50
2022-12-09T07:03:29.340Z,7.03
2022-12-09T07:06:39.464Z,5.03
2022-12-09T07:09:10.809Z,4.50
2022-12-09T07:11:49.620Z,2.95
2022-12-09T07:14:37.654Z,5.65
2022-12-09T07:17:32.148Z,5.60
2022-12-09T07:20:06.345Z,8.98
2022-12-09T07:22:46.108Z,8.10
2022-12-09T07:25:13.774Z,5.97
2022-12-09T07:27:52.272Z,5.78
2022-12-09T07:30:29.516Z,8.75
2022-12-09T07:33:01.415Z,9.40
2022-12-09T07:35:47.802Z,5.25
2022-12-09T07:38:30.995Z,3.45
2022-12-09T07:41:29.703Z,5.07
2022-12-09T07:44:06.179Z,6.55
2022-12-09T07:46:58.591Z,4.90
2022-12-09T07:49:28.308Z,7.40
2022-12-09T07:54:45.345Z,3.42
2022-12-09T07:57:22.047Z,3.50
2022-12-09T07:59:49.462Z,4.25
2022-12-09T08:02:20.154Z,6.25
2022-12-09T08:04:47.753Z,3.97
2022-12-09T08:07:23.834Z,5.30
2022-12-09T08:09:51.496Z,5.38
2022-12-09T08:12:32.555Z,5.47
2022-12-09T08:15:00.258Z,6.18
2022-12-09T08:17:32.775Z,4.50
2022-12-09T08:20:11.327Z,4.15
2022-12-09T08:22:54.978Z,4.65
2022-12-09T08:25:27.163Z,4.65
2022-12-09T08:27:58.599Z,4.53
2022-12-09T08:30:36.069Z,4.90
2022-12-09T08:33:05.916Z,6.80
2022-12-09T08:36:04.081Z,7.80
2022-12-09T08:38:36.030Z,7.47
2022-12-09T08:41:30.545Z,7.05
2022-12-09T08:44:00.922Z,7.68
2022-12-09T08:46:49.180Z,7.68
2022-12-09T08:49:32.203Z,10.88
2022-12-09T08:52:08.052Z,6.97
2022-12-09T08:54:50.673Z,9.18
2022-12-09T08:57:38.420Z,9.35
2022-12-09T09:00:39.771Z,9.65
2022-12-09T09:11:48.843Z,4.38
2022-12-09T09:14:34.216Z,5.03
2022-12-09T09:17:12.931Z,4.25
2022-12-09T09:19:45.860Z,5.30
2022-12-09T09:22:18.351Z,11.18
2022-12-09T09:25:01.124Z,6.25
2022-12-09T09:27:44.660Z,6.20
2022-12-09T09:40:59.658Z,4.07
2022-12-09T09:43:38.350Z,6.85
2022-12-09T09:46:16.967Z,6.68
2022-12-09T09:48:48.891Z,5.30
2022-12-09T09:51:28.614Z,4.45
2022-12-09T09:54:14.840Z,6.88
2022-12-09T09:56:53.070Z,8.40
2022-12-09T10:02:15.401Z,4.65
2022-12-09T10:07:51.693Z,5.03
2022-12-09T10:10:47.425Z,7.63
2022-12-09T10:13:38.637Z,7.43
2022-12-09T10:16:17.900Z,10.82
2022-12-09T10:19:16.758Z,7.80
2022-12-09T10:22:27.178Z,9.38
2022-12-09T10:39:49.245Z,7.25
2022-12-09T10:43:04.752Z,7.07
2022-12-09T10:49:44.824Z,7.35
2022-12-09T10:53:00.653Z,10.20
2022-12-09T10:55:58.149Z,11.93
2022-12-09T10:58:49.463Z,10.27
2022-12-09T11:02:56.013Z,11.25
2022-12-09T11:05:42.198Z,10.55
2022-12-09T11:08:52.654Z,9.23
2022-12-09T11:12:05.682Z,8.43
2022-12-09T11:15:17.339Z,8.98
2022-12-09T11:19:35.371Z,9.43
2022-12-09T11:21:45.184Z,14.13
2022-12-09T11:24:39.328Z,13.65
2022-12-09T11:27:38.835Z,9.60
2022-12-09T11:31:19.957Z,11.63
2022-12-09T11:33:48.490Z,11.07
2022-12-09T11:36:40.146Z,9.07
2022-12-09T11:39:27.692Z,11.35
2022-12-09T11:42:30.393Z,10.05
2022-12-09T11:45:45.278Z,11.60
2022-12-09T11:48:45.053Z,10.13
2022-12-09T11:51:43.617Z,10.00
2022-12-09T11:54:24.435Z,15.30
2022-12-09T11:56:56.269Z,13.90
2022-12-09T11:59:39.966Z,10.02
2022-12-09T12:02:37.604Z,9.68
2022-12-09T12:05:14.696Z,13.55
2022-12-09T12:08:27.553Z,11.95
2022-12-09T12:14:06.707Z,11.60
2022-12-09T12:17:11.194Z,8.55
2022-12-09T12:19:41.290Z,13.50
2022-12-09T12:22:33.179Z,13.00
2022-12-09T12:25:18.981Z,10.13
2022-12-09T12:30:17.753Z,10.50
2022-12-09T12:34:16.267Z,10.35
2022-12-09T12:36:29.846Z,10.73
2022-12-09T12:39:44.498Z,9.43
2022-12-09T12:42:52.684Z,9.75
2022-12-09T12:48:49.039Z,8.68
2022-12-09T12:51:51.133Z,8.65
2022-12-09T12:54:30.678Z,10.20
2022-12-09T12:57:37.256Z,8.23
2022-12-09T13:00:43.908Z,9.00
2022-12-09T13:03:18.293Z,12.05
2022-12-09T13:06:02.090Z,9.30
2022-12-09T13:09:11.880Z,9.77
2022-12-09T13:11:47.652Z,10.10
2022-12-09T13:14:21.634Z,11.23
2022-12-09T13:16:59.834Z,10.80
2022-12-09T13:19:55.472Z,12.23
2022-12-09T13:22:49.153Z,8.70
2022-12-09T13:26:12.337Z,12.18
2022-12-09T13:28:58.336Z,7.53
2022-12-09T13:32:10.688Z,7.15
2022-12-09T13:34:47.583Z,5.88
2022-12-09T13:37:39.963Z,8.20
2022-12-09T13:40:24.130Z,9.23
2022-12-09T13:43:09.150Z,14.52
2022-12-09T13:45:53.397Z,9.02
2022-12-09T13:48:26.546Z,9.85
2022-12-09T13:54:19.335Z,12.63
2022-12-09T13:57:35.740Z,11.60
2022-12-09T14:06:29.541Z,12.55
2022-12-09T14:09:11.857Z,12.65
2022-12-09T14:12:27.240Z,13.20
2022-12-09T14:15:54.559Z,10.63
2022-12-09T14:18:40.175Z,10.57
2022-12-09T14:21:29.089Z,13.43
2022-12-09T14:24:18.650Z,13.13
2022-12-09T14:27:08.330Z,10.18
2022-12-09T14:29:50.573Z,8.55
2022-12-09T14:32:29.180Z,12.48
2022-12-09T14:34:59.447Z,5.88
2022-12-09T14:37:43.148Z,7.40
2022-12-09T14:40:31.392Z,12.82
2022-12-09T14:43:04.201Z,11.77
2022-12-09T14:49:25.986Z,9.75
2022-12-09T14:52:32.030Z,12.50
2022-12-09T14:55:16.746Z,9.70
2022-12-09T14:58:08.417Z,7.68
2022-12-09T15:01:17.688Z,7.03
2022-12-09T15:04:05.999Z,10.77
2022-12-09T15:06:48.729Z,9.32
2022-12-09T15:09:32.295Z,8.95
2022-12-09T15:12:08.161Z,7.68
2022-12-09T15:14:57.552Z,9.60
2022-12-09T15:17:45.489Z,8.48
2022-12-09T15:20:47.938Z,8.10
2022-12-09T15:23:27.169Z,8.20
2022-12-09T15:26:50.833Z,7.85
2022-12-09T15:29:33.954Z,8.80
2022-12-09T15:32:04.601Z,7.88
2022-12-09T15:34:39.597Z,12.43
2022-12-09T15:37:19.932Z,10.60
2022-12-09T15:40:36.347Z,9.02
2022-12-09T15:43:30.738Z,6.78
2022-12-09T15:46:35.951Z,11.63
2022-12-09T15:49:28.646Z,10.95
2022-12-09T15:52:11.757Z,9.90
2022-12-09T15:54:44.215Z,7.78
2022-12-09T15:57:27.251Z,10.05
2022-12-09T16:00:00.855Z,11.32
2022-12-09T16:02:43.089Z,13.13
2022-12-09T16:05:31.142Z,9.70
2022-12-09T16:08:10.607Z,9.88
2022-12-09T16:11:35.263Z,12.02
2022-12-09T16:14:11.411Z,12.38
2022-12-09T16:16:50.008Z,8.85
2022-12-09T16:19:31.521Z,8.93
2022-12-09T16:22:29.712Z,9.90
2022-12-09T16:25:29.136Z,8.25
2022-12-09T16:28:18.741Z,10.10
2022-12-09T16:31:09.415Z,6.47
2022-12-09T16:33:39.776Z,8.15
2022-12-09T16:36:08.834Z,9.63
2022-12-09T16:38:39.504Z,11.95
2022-12-09T16:41:18.536Z,10.45
2022-12-09T16:43:58.000Z,6.32
2022-12-09T16:46:33.345Z,10.68
2022-12-09T16:49:05.221Z,9.98
2022-12-09T16:51:47.046Z,10.13
2022-12-09T16:54:20.259Z,9.57
2022-12-09T16:56:48.228Z,8.98
2022-12-09T16:59:15.356Z,6.47
2022-12-09T17:01:47.012Z,7.68
2022-12-09T17:04:27.222Z,6.75
2022-12-09T17:06:58.630Z,6.97
2022-12-09T17:09:25.700Z,11.45
2022-12-09T17:11:52.893Z,9.65
2022-12-09T17:14:32.480Z,5.57
2022-12-09T17:17:10.109Z,7.68
2022-12-09T17:19:39.578Z,8.52
2022-12-09T17:22:08.021Z,9.07
2022-12-09T17:24:40.344Z,7.25
2022-12-09T17:27:14.130Z,7.22
2022-12-09T17:29:46.286Z,8.02
2022-12-09T17:32:29.214Z,6.07
2022-12-09T17:35:12.389Z,9.48
2022-12-09T17:37:44.708Z,7.93
2022-12-09T17:40:14.954Z,7.18
2022-12-09T17:42:44.575Z,7.30
2022-12-09T17:45:16.549Z,7.90
2022-12-09T17:47:51.610Z,8.13
2022-12-09T17:50:44.723Z,5.68
2022-12-09T17:53:27.855Z,6.22
2022-12-09T17:56:14.342Z,8.75
2022-12-09T17:58:59.911Z,7.55
2022-12-09T18:01:37.120Z,5.03
2022-12-09T18:04:11.391Z,7.85
2022-12-09T18:06:43.002Z,7.32
2022-12-09T18:09:15.171Z,8.52
2022-12-09T18:11:48.767Z,8.57
2022-12-09T18:14:19.193Z,10.25
2022-12-09T18:17:00.420Z,6.97
2022-12-09T18:19:31.143Z,8.57
2022-12-09T18:22:00.079Z,7.22
2022-12-09T18:24:37.150Z,5.18
2022-12-09T18:27:07.592Z,6.18
2022-12-09T18:29:37.457Z,3.78
2022-12-09T18:32:08.098Z,5.75
2022-12-09T18:34:35.876Z,5.57
2022-12-09T18:37:25.714Z,5.18
2022-12-09T18:39:55.364Z,4.60
2022-12-09T18:42:30.608Z,5.57
2022-12-09T18:44:57.829Z,7.70
2022-12-09T18:47:28.054Z,5.60
2022-12-09T18:49:58.148Z,9.98
2022-12-09T18:52:30.911Z,6.93
2022-12-09T18:54:58.081Z,7.05
2022-12-09T18:57:30.659Z,7.53
2022-12-09T18:59:58.196Z,10.20
2022-12-09T19:02:31.008Z,9.55
2022-12-09T19:05:01.647Z,10.50
2022-12-09T19:07:49.124Z,9.45
2022-12-09T19:10:26.517Z,9.30
2022-12-09T19:13:05.280Z,8.70
2022-12-09T19:15:39.071Z,6.70
2022-12-09T19:18:19.333Z,7.88
2022-12-09T19:20:48.725Z,15.70
2022-12-09T19:23:20.215Z,8.65
2022-12-09T19:25:49.810Z,15.52
2022-12-09T19:28:17.561Z,10.00
2022-12-09T19:31:04.192Z,18.77
2022-12-09T19:33:36.328Z,14.25
2022-12-09T19:36:22.984Z,21.67
2022-12-09T19:38:52.184Z,13.50
2022-12-09T19:41:37.394Z,45.80
2022-12-09T19:44:37.397Z,17.35
2022-12-09T19:47:17.408Z,14.63
2022-12-09T19:49:53.001Z,7.30
2022-12-09T19:52:25.021Z,15.40
2022-12-09T19:54:53.379Z,51.60
2022-12-09T19:57:24.262Z,61.47
2022-12-09T20:00:01.125Z,14.57
2022-12-09T20:02:34.654Z,18.98
2022-12-09T20:05:15.502Z,16.83
2022-12-09T20:10:35.526Z,13.85
2022-12-09T20:13:05.301Z,14.02
2022-12-09T20:15:53.606Z,12.38
2022-12-09T20:18:25.613Z,10.57
2022-12-09T20:20:55.483Z,11.63
2022-12-09T20:23:41.847Z,12.52
2022-12-09T20:26:15.269Z,20.80
2022-12-09T20:28:44.294Z,31.67
2022-12-09T20:31:46.111Z,50.88
2022-12-09T20:34:19.237Z,44.97
2022-12-09T20:36:46.846Z,61.33
2022-12-09T20:39:19.202Z,24.05
2022-12-09T20:41:54.532Z,14.45
2022-12-09T20:44:28.016Z,14.35
2022-12-09T20:46:58.013Z,12.35
2022-12-09T20:49:27.767Z,18.08
2022-12-09T20:51:58.600Z,18.63
2022-12-09T20:54:31.254Z,15.57
2022-12-09T20:57:00.869Z,15.30
2022-12-09T20:59:30.122Z,11.48
2022-12-09T21:01:57.319Z,14.93
2022-12-09T21:04:31.701Z,13.85
2022-12-09T21:07:11.803Z,19.77
2022-12-09T21:09:39.186Z,18.65
2022-12-09T21:12:40.573Z,15.63
2022-12-09T21:15:15.634Z,22.67
2022-12-09T21:17:42.807Z,15.20
2022-12-09T21:20:15.592Z,14.68
2022-12-09T21:23:10.434Z,24.25
2022-12-09T21:25:35.974Z,20.98
2022-12-09T21:28:10.054Z,21.02
2022-12-09T21:30:41.541Z,22.83
2022-12-09T21:33:10.999Z,18.27
2022-12-09T21:35:43.005Z,22.10
2022-12-09T21:38:15.319Z,20.65
2022-12-09T21:40:42.852Z,19.02
2022-12-09T21:43:17.301Z,23.48
2022-12-09T21:45:55.072Z,17.98
2022-12-09T21:48:27.158Z,18.25
2022-12-09T21:50:58.563Z,17.83
2022-12-09T21:53:26.070Z,19.52
2022-12-09T21:56:15.394Z,21.73
2022-12-09T21:58:54.969Z,14.90
2022-12-09T22:01:41.755Z,14.55
2022-12-09T22:04:16.999Z,17.48
2022-12-09T22:06:50.724Z,15.77
2022-12-09T22:09:20.807Z,13.20
2022-12-09T22:11:53.287Z,16.60
2022-12-09T22:14:20.504Z,14.90
2022-12-09T22:16:49.822Z,11.00
2022-12-09T22:19:19.818Z,13.60
2022-12-09T22:21:48.597Z,13.85
2022-12-09T22:24:16.493Z,8.73
2022-12-09T22:26:56.409Z,9.25
2022-12-09T22:29:25.216Z,9.40
2022-12-09T22:31:52.436Z,11.27
2022-12-09T22:34:20.705Z,16.17
2022-12-09T22:36:49.461Z,14.48
2022-12-09T22:39:19.215Z,13.02
2022-12-09T22:41:55.322Z,13.90
2022-12-09T22:44:22.565Z,13.60
2022-12-09T22:46:49.722Z,9.50
2022-12-09T22:49:17.664Z,9.82
2022-12-09T22:51:46.333Z,9.77
2022-12-09T22:54:14.189Z,9.32
2022-12-09T22:56:48.953Z,11.85
2022-12-09T22:59:20.140Z,9.38
2022-12-09T23:01:55.403Z,12.85
2022-12-09T23:04:27.580Z,8.52
2022-12-09T23:06:57.114Z,13.20
2022-12-09T23:09:28.453Z,8.52
2022-12-09T23:11:55.576Z,14.38
2022-12-09T23:14:28.100Z,18.52
2022-12-09T23:17:00.971Z,16.45
2022-12-09T23:19:31.497Z,16.35
2022-12-09T23:21:59.834Z,10.65
2022-12-09T23:29:31.790Z,11.60
2022-12-09T23:32:07.382Z,21.35
2022-12-09T23:34:40.145Z,15.13
2022-12-09T23:37:18.846Z,17.75
2022-12-09T23:39:50.332Z,14.88
2022-12-09T23:42:19.738Z,13.48
2022-12-09T23:44:55.849Z,10.93
2022-12-09T23:47:23.075Z,11.13
2022-12-09T23:49:53.153Z,13.45
2022-12-09T23:52:25.101Z,12.18
2022-12-09T23:54:52.226Z,11.43
2022-12-09T23:57:23.230Z,9.77
2022-12-09T23:59:54.233Z,9.10
